Time;durP1;ratioP1;P1;durP2;ratioP2;P2;SDS_P1;SDS_P2;PMS_P1;PMS_P2;Temp;Humidity;BMP_temperature;BMP_pressure;BME280_temperature;BME280_humidity;BME280_pressure;Samples;Min_cycle;Max_cycle;Signal;HPM_P1;HPM_P2
2024/04/25 00:00:58;;;;;;;6.07;3.92;;;5.40;99.90;;;;;;7368841;19;20019;-64
2024/04/25 00:03:24;;;;;;;6.80;4.10;;;5.30;99.90;;;;;;7366243;19;20474;-64
2024/04/25 00:05:51;;;;;;;5.65;4.28;;;5.30;99.90;;;;;;7367790;19;20035;-64
2024/04/25 00:08:17;;;;;;;7.18;4.80;;;5.30;99.90;;;;;;7381992;19;20374;-64
2024/04/25 00:10:50;;;;;;;5.60;4.07;;;5.30;99.90;;;;;;7381818;19;20470;-64
2024/04/25 00:13:16;;;;;;;4.75;3.55;;;5.30;99.90;;;;;;7382399;19;20365;-64
2024/04/25 00:15:42;;;;;;;5.63;3.80;;;5.30;99.90;;;;;;7381157;19;20052;-64
2024/04/25 00:18:09;;;;;;;5.38;3.75;;;5.20;99.90;;;;;;7381288;19;20020;-65
2024/04/25 00:20:36;;;;;;;5.93;3.72;;;5.20;99.90;;;;;;7382689;19;20022;-64
2024/04/25 00:23:03;;;;;;;5.22;3.10;;;5.10;99.90;;;;;;7382168;19;20380;-64
2024/04/25 00:25:49;;;;;;;4.57;3.28;;;5.20;99.90;;;;;;7384339;19;20018;-64
2024/04/25 00:28:19;;;;;;;5.00;3.03;;;5.10;99.90;;;;;;7383104;19;20097;-64
2024/04/25 00:30:47;;;;;;;3.42;2.70;;;5.10;99.90;;;;;;7373880;19;20042;-64
2024/04/25 00:33:13;;;;;;;4.85;2.85;;;5.00;99.90;;;;;;7376293;19;20761;-64
2024/04/25 00:35:42;;;;;;;5.35;3.05;;;5.00;99.90;;;;;;7368409;19;20023;-64
2024/04/25 00:38:12;;;;;;;3.60;2.58;;;5.00;99.90;;;;;;7374964;19;20561;-64
2024/04/25 00:40:38;;;;;;;3.60;2.42;;;5.00;99.90;;;;;;7370399;19;21590;-63
2024/04/25 00:43:04;;;;;;;6.13;2.35;;;5.00;99.90;;;;;;7373846;19;20114;-63
2024/04/25 00:45:34;;;;;;;4.88;2.38;;;5.00;99.90;;;;;;7368760;19;20037;-64
2024/04/25 00:48:20;;;;;;;2.97;2.00;;;5.00;99.90;;;;;;7377353;19;20018;-64
2024/04/25 00:50:47;;;;;;;3.28;1.83;;;5.00;99.90;;;;;;7384775;19;20018;-64
2024/04/25 00:53:13;;;;;;;4.88;2.10;;;5.00;99.90;;;;;;7384611;19;20023;-64
2024/04/25 00:55:40;;;;;;;5.72;1.90;;;5.00;99.90;;;;;;7381724;19;20752;-64
2024/04/25 00:58:09;;;;;;;6.72;1.90;;;5.00;99.90;;;;;;7375043;19;20352;-64
2024/04/25 01:00:37;;;;;;;5.85;2.13;;;5.00;99.90;;;;;;7383317;19;20015;-64
2024/04/25 01:03:05;;;;;;;5.82;2.17;;;5.00;99.90;;;;;;7375908;19;20369;-64
2024/04/25 01:05:33;;;;;;;5.53;2.15;;;5.00;99.90;;;;;;7363348;19;20042;-64
2024/04/25 01:08:00;;;;;;;6.97;2.15;;;5.00;99.90;;;;;;7372045;19;20022;-64
2024/04/25 01:10:30;;;;;;;5.10;2.13;;;5.00;99.90;;;;;;7383864;19;20482;-64
2024/04/25 01:12:56;;;;;;;5.57;2.13;;;5.00;99.90;;;;;;7385647;19;20018;-64
2024/04/25 01:15:23;;;;;;;7.80;2.38;;;5.00;99.90;;;;;;7389962;19;20022;-64
2024/04/25 01:17:49;;;;;;;4.63;2.00;;;5.00;99.90;;;;;;7391153;19;20086;-64
2024/04/25 01:20:15;;;;;;;8.75;2.47;;;5.00;99.90;;;;;;7388958;19;20015;-64
2024/04/25 01:22:48;;;;;;;5.10;2.10;;;5.00;99.90;;;;;;7390847;19;20010;-64
2024/04/25 01:25:17;;;;;;;4.13;1.73;;;5.00;99.90;;;;;;7389020;19;20053;-65
2024/04/25 01:27:44;;;;;;;6.97;1.90;;;5.00;99.90;;;;;;7386873;19;20340;-64
2024/04/25 01:30:11;;;;;;;2.85;1.45;;;5.00;99.90;;;;;;7378071;19;20026;-65
2024/04/25 01:32:39;;;;;;;8.85;1.98;;;4.90;99.90;;;;;;7376982;19;20029;-65
2024/04/25 01:35:08;;;;;;;6.85;2.35;;;4.90;99.90;;;;;;7390242;19;20080;-65
2024/04/25 01:37:34;;;;;;;4.10;1.60;;;4.80;99.90;;;;;;7391299;19;20015;-65
2024/04/25 01:40:01;;;;;;;7.63;2.08;;;4.80;99.90;;;;;;7389914;19;20032;-65
2024/04/25 01:42:27;;;;;;;5.63;2.00;;;4.70;99.90;;;;;;7392300;19;20373;-64
2024/04/25 01:44:54;;;;;;;6.78;2.33;;;4.70;99.90;;;;;;7390048;19;20018;-64
2024/04/25 01:47:20;;;;;;;5.93;2.33;;;4.70;99.90;;;;;;7390576;19;20014;-64
2024/04/25 01:49:46;;;;;;;3.97;1.98;;;4.70;99.90;;;;;;7391290;19;20040;-64
2024/04/25 01:52:12;;;;;;;6.88;2.20;;;4.70;99.90;;;;;;7387286;19;20561;-64
2024/04/25 01:54:41;;;;;;;6.70;2.25;;;4.70;99.90;;;;;;7391181;19;20371;-64
2024/04/25 01:57:07;;;;;;;8.98;2.30;;;4.70;99.90;;;;;;7391759;19;20499;-64
2024/04/25 01:59:33;;;;;;;7.70;2.20;;;4.60;99.90;;;;;;7387571;19;20011;-64
2024/04/25 02:01:59;;;;;;;7.38;2.10;;;4.60;99.90;;;;;;7377670;19;20025;-64
2024/04/25 02:04:46;;;;;;;5.93;1.85;;;4.60;99.90;;;;;;7384294;19;20420;-65
2024/04/25 02:07:12;;;;;;;4.80;1.95;;;4.60;99.90;;;;;;7390207;19;20697;-64
2024/04/25 02:09:42;;;;;;;9.10;1.92;;;4.60;99.90;;;;;;7388728;19;20038;-64
2024/04/25 02:12:08;;;;;;;7.85;2.25;;;4.60;99.90;;;;;;7387433;19;20375;-64
2024/04/25 02:14:34;;;;;;;6.57;2.03;;;4.60;99.90;;;;;;7390635;19;20014;-64
2024/04/25 02:17:01;;;;;;;5.32;2.03;;;4.70;99.90;;;;;;7385206;19;20026;-64
2024/04/25 02:19:27;;;;;;;7.63;1.98;;;4.70;99.90;;;;;;7379030;19;20255;-64
2024/04/25 02:27:26;;;;;;;6.88;2.13;;;4.90;99.90;;;;;;7389194;19;20122;-64
2024/04/25 02:29:53;;;;;;;10.60;2.20;;;4.90;99.90;;;;;;7386641;19;20107;-64
2024/04/25 02:32:19;;;;;;;8.63;2.08;;;4.90;99.90;;;;;;7387162;19;20048;-64
2024/04/25 02:34:45;;;;;;;7.72;1.92;;;4.80;99.90;;;;;;7387164;19;20018;-64
2024/04/25 02:37:11;;;;;;;7.63;2.08;;;4.90;99.90;;;;;;7377249;19;20454;-65
2024/04/25 02:39:38;;;;;;;11.80;2.42;;;4.90;99.90;;;;;;7374551;19;20019;-65
2024/04/25 02:42:04;;;;;;;7.07;1.90;;;4.90;99.90;;;;;;7371419;19;20026;-64
2024/04/25 02:44:30;;;;;;;5.75;2.08;;;5.00;99.90;;;;;;7375741;19;20022;-64
2024/04/25 02:46:56;;;;;;;6.25;1.60;;;5.00;99.90;;;;;;7375660;19;20033;-65
2024/04/25 02:49:23;;;;;;;5.85;1.73;;;5.00;99.90;;;;;;7372904;19;20097;-64
2024/04/25 02:51:50;;;;;;;5.43;2.13;;;4.90;99.90;;;;;;7370412;19;20017;-64
2024/04/25 02:54:36;;;;;;;4.47;1.67;;;4.80;99.90;;;;;;7375052;19;20010;-64
2024/04/25 02:57:02;;;;;;;8.07;2.28;;;4.80;99.90;;;;;;7373594;19;20043;-64
2024/04/25 02:59:28;;;;;;;7.78;1.70;;;4.70;99.90;;;;;;7379558;19;20502;-64
2024/04/25 03:01:55;;;;;;;7.78;1.75;;;4.70;99.90;;;;;;7384768;19;20207;-64
2024/04/25 03:04:21;;;;;;;9.23;1.80;;;4.60;99.90;;;;;;7376487;19;20025;-65
2024/04/25 03:07:07;;;;;;;5.32;1.48;;;4.50;99.90;;;;;;7373232;19;20574;-64
2024/04/25 03:09:33;;;;;;;7.35;2.28;;;4.50;99.90;;;;;;7374526;19;20018;-64
2024/04/25 03:12:20;;;;;;;6.90;1.75;;;4.40;99.90;;;;;;7370896;19;20014;-64
2024/04/25 03:14:46;;;;;;;6.32;1.80;;;4.30;99.90;;;;;;7372843;19;20766;-65
2024/04/25 03:17:12;;;;;;;5.75;1.92;;;4.30;99.90;;;;;;7382656;19;20015;-64
2024/04/25 03:19:40;;;;;;;12.25;2.25;;;4.30;99.90;;;;;;7387537;19;20106;-64
2024/04/25 03:22:06;;;;;;;12.75;2.75;;;4.20;99.90;;;;;;7386022;19;20025;-64
2024/04/25 03:24:33;;;;;;;10.85;1.92;;;4.20;99.90;;;;;;7384821;19;20114;-64
2024/04/25 03:26:59;;;;;;;9.98;2.00;;;4.20;99.90;;;;;;7385762;19;20384;-64
2024/04/25 03:29:25;;;;;;;6.93;1.90;;;4.20;99.90;;;;;;7382539;19;20026;-64
2024/04/25 03:32:11;;;;;;;9.20;2.40;;;4.20;99.90;;;;;;7381340;19;20025;-64
2024/04/25 03:34:38;;;;;;;6.13;2.33;;;4.20;99.90;;;;;;7382485;19;20037;-64
2024/04/25 03:37:05;;;;;;;7.45;2.22;;;4.20;99.90;;;;;;7384215;19;20021;-64
2024/04/25 03:39:51;;;;;;;10.48;2.47;;;4.20;99.90;;;;;;7384983;19;20014;-64
2024/04/25 03:42:17;;;;;;;8.23;2.47;;;4.30;99.90;;;;;;7382105;19;20019;-65
2024/04/25 03:45:03;;;;;;;13.43;2.33;;;4.20;99.90;;;;;;7369931;19;20042;-65
2024/04/25 03:47:31;;;;;;;9.93;2.33;;;4.30;99.90;;;;;;7374154;19;20027;-65
2024/04/25 03:50:20;;;;;;;8.57;2.35;;;4.30;99.90;;;;;;7371229;19;20130;-65
2024/04/25 03:52:47;;;;;;;9.27;2.33;;;4.30;99.90;;;;;;7369454;19;20026;-65
2024/04/25 03:55:13;;;;;;;11.75;2.70;;;4.30;99.90;;;;;;7375760;19;20022;-64
2024/04/25 03:57:59;;;;;;;10.27;2.33;;;4.40;99.90;;;;;;7381489;19;20018;-64
2024/04/25 04:00:25;;;;;;;9.70;2.53;;;4.40;99.90;;;;;;7385439;19;20018;-65
2024/04/25 04:02:51;;;;;;;8.93;2.55;;;4.40;99.90;;;;;;7384740;19;20125;-64
2024/04/25 04:05:37;;;;;;;7.35;2.22;;;4.30;99.90;;;;;;7383504;19;20045;-64
2024/04/25 04:08:04;;;;;;;11.20;2.50;;;4.30;99.90;;;;;;7384774;19;20026;-64
2024/04/25 04:10:31;;;;;;;9.13;2.22;;;4.30;99.90;;;;;;7383139;19;20386;-64
2024/04/25 04:12:58;;;;;;;5.60;1.70;;;4.20;99.90;;;;;;7385994;19;20019;-64
2024/04/25 04:15:24;;;;;;;10.70;2.55;;;4.10;99.90;;;;;;7384326;19;20061;-64
2024/04/25 04:18:11;;;;;;;6.38;2.42;;;4.10;99.90;;;;;;7382902;19;20396;-64
2024/04/25 04:20:37;;;;;;;9.55;2.60;;;4.10;99.90;;;;;;7383902;19;20915;-64
2024/04/25 04:23:04;;;;;;;8.13;2.25;;;4.00;99.90;;;;;;7385743;19;20359;-64
2024/04/25 04:25:30;;;;;;;7.68;1.90;;;4.00;99.90;;;;;;7382040;19;20346;-64
2024/04/25 04:27:57;;;;;;;11.50;2.75;;;4.00;99.90;;;;;;7384069;19;20011;-64
2024/04/25 04:30:23;;;;;;;9.82;2.60;;;3.90;99.90;;;;;;7385370;19;20015;-64
2024/04/25 04:32:49;;;;;;;11.05;3.28;;;3.90;99.90;;;;;;7383527;19;20021;-64
2024/04/25 04:35:15;;;;;;;10.60;3.10;;;3.90;99.90;;;;;;7386121;19;20046;-64
2024/04/25 04:37:42;;;;;;;9.13;2.00;;;3.90;99.90;;;;;;7370775;19;20044;-65
2024/04/25 04:40:08;;;;;;;12.63;2.17;;;3.90;99.90;;;;;;7374696;19;20026;-64
2024/04/25 04:42:36;;;;;;;7.18;2.70;;;3.90;99.90;;;;;;7382612;19;20018;-64
2024/04/25 04:45:02;;;;;;;14.20;2.80;;;3.90;99.90;;;;;;7384424;19;20024;-64
2024/04/25 04:47:29;;;;;;;8.52;2.63;;;3.90;99.90;;;;;;7390278;19;20025;-65
2024/04/25 04:49:56;;;;;;;9.32;2.35;;;3.90;99.90;;;;;;7391539;19;20026;-64
2024/04/25 04:52:23;;;;;;;7.13;2.10;;;3.90;99.90;;;;;;7389347;19;20566;-64
2024/04/25 04:54:49;;;;;;;7.30;2.22;;;3.90;99.90;;;;;;7378743;19;20011;-64
2024/04/25 04:57:16;;;;;;;10.88;2.33;;;3.90;99.90;;;;;;7378796;19;20088;-65
2024/04/25 04:59:43;;;;;;;5.65;2.20;;;3.90;99.90;;;;;;7379021;19;20508;-65
2024/04/25 05:02:09;;;;;;;9.02;2.30;;;3.90;99.90;;;;;;7382376;19;20025;-65
2024/04/25 05:04:35;;;;;;;8.45;3.03;;;3.90;99.90;;;;;;7388475;19;20035;-64
2024/04/25 05:07:03;;;;;;;9.05;3.15;;;4.00;99.90;;;;;;7390013;19;20010;-64
2024/04/25 05:09:29;;;;;;;7.50;3.10;;;4.00;99.90;;;;;;7390475;19;20282;-64
2024/04/25 05:11:58;;;;;;;8.43;2.60;;;4.00;99.90;;;;;;7388844;19;20019;-64
2024/04/25 05:14:26;;;;;;;9.95;2.33;;;4.00;99.90;;;;;;7392120;19;20094;-64
2024/04/25 05:16:53;;;;;;;12.38;2.88;;;4.10;99.90;;;;;;7390104;19;20015;-64
2024/04/25 05:19:19;;;;;;;9.25;2.47;;;4.20;99.90;;;;;;7388947;19;20025;-64
2024/04/25 05:21:47;;;;;;;10.98;2.80;;;4.20;99.90;;;;;;7391483;19;20018;-64
2024/04/25 05:24:13;;;;;;;13.27;3.30;;;4.30;99.90;;;;;;7387416;19;20038;-65
2024/04/25 05:26:41;;;;;;;8.45;2.92;;;4.40;99.90;;;;;;7389441;19;20019;-66
2024/04/25 05:29:09;;;;;;;8.10;2.20;;;4.50;99.90;;;;;;7388395;19;20022;-65
2024/04/25 05:31:36;;;;;;;15.40;3.08;;;4.50;99.90;;;;;;7379347;19;20791;-65
2024/04/25 05:34:02;;;;;;;9.73;2.83;;;4.60;99.90;;;;;;7381773;19;20022;-65
2024/04/25 05:36:28;;;;;;;12.55;2.80;;;4.70;99.90;;;;;;7389869;19;20019;-65
2024/04/25 05:38:56;;;;;;;14.05;2.88;;;4.80;99.90;;;;;;7382434;19;20014;-65
2024/04/25 05:41:22;;;;;;;9.95;2.28;;;4.90;99.90;;;;;;7376940;19;20022;-65
2024/04/25 05:43:48;;;;;;;7.95;2.28;;;4.90;99.90;;;;;;7375791;19;20019;-65
2024/04/25 05:46:15;;;;;;;8.70;2.47;;;5.00;99.90;;;;;;7378302;19;20870;-65
2024/04/25 05:48:42;;;;;;;9.75;3.10;;;5.00;99.90;;;;;;7387078;19;20037;-65
2024/04/25 05:51:08;;;;;;;11.55;2.58;;;5.10;99.90;;;;;;7382910;19;20010;-66
2024/04/25 05:53:35;;;;;;;9.63;2.20;;;5.20;99.90;;;;;;7378418;19;20035;-65
2024/04/25 05:56:01;;;;;;;8.30;2.03;;;5.30;99.90;;;;;;7381920;19;20871;-66
2024/04/25 05:58:28;;;;;;;8.18;2.03;;;5.40;99.90;;;;;;7385939;19;20028;-65
2024/04/25 06:00:57;;;;;;;10.88;2.60;;;5.40;99.90;;;;;;7385859;19;20054;-66
2024/04/25 06:03:23;;;;;;;12.05;2.78;;;5.50;99.90;;;;;;7377788;19;20025;-63
2024/04/25 06:05:49;;;;;;;7.43;2.10;;;5.60;99.90;;;;;;7373701;19;20038;-64
2024/04/25 06:08:15;;;;;;;9.55;2.10;;;5.60;99.90;;;;;;7381601;19;20352;-64
2024/04/25 06:10:42;;;;;;;8.48;2.33;;;5.70;99.90;;;;;;7384360;19;20037;-63
2024/04/25 06:13:08;;;;;;;11.05;2.50;;;5.70;99.90;;;;;;7379788;19;20019;-64
2024/04/25 06:15:36;;;;;;;9.95;2.10;;;5.80;99.90;;;;;;7375206;19;20398;-64
2024/04/25 06:18:02;;;;;;;5.05;1.83;;;5.80;99.90;;;;;;7381917;19;20058;-63
2024/04/25 06:20:28;;;;;;;8.73;2.10;;;5.80;99.90;;;;;;7384197;19;20022;-62
2024/04/25 06:22:55;;;;;;;8.10;2.15;;;5.90;99.90;;;;;;7376011;19;20846;-64
2024/04/25 06:25:21;;;;;;;11.63;2.10;;;5.90;99.90;;;;;;7371794;19;20023;-64
2024/04/25 06:27:47;;;;;;;11.40;2.33;;;6.00;99.90;;;;;;7374919;19;20778;-64
2024/04/25 06:30:16;;;;;;;10.57;2.00;;;6.00;61.90;;;;;;7376831;19;20453;-63
2024/04/25 06:32:43;;;;;;;9.50;2.47;;;6.10;97.00;;;;;;7383240;19;20022;-63
2024/04/25 06:35:09;;;;;;;11.13;2.25;;;6.10;80.80;;;;;;7383666;19;20018;-63
2024/04/25 06:37:36;;;;;;;6.78;1.98;;;6.10;23.60;;;;;;7384485;19;20384;-64
2024/04/25 06:40:02;;;;;;;8.98;2.03;;;6.20;51.90;;;;;;7385383;19;20050;-63
2024/04/25 06:42:28;;;;;;;7.72;2.35;;;6.20;24.40;;;;;;7383612;19;20039;-64
2024/04/25 06:44:54;;;;;;;8.15;2.50;;;6.30;54.10;;;;;;7381060;19;20471;-63
2024/04/25 06:47:21;;;;;;;7.28;2.03;;;6.40;34.50;;;;;;7384677;19;20019;-63
2024/04/25 06:49:47;;;;;;;11.15;2.70;;;6.40;1.00;;;;;;7383385;19;20490;-63
2024/04/25 06:52:13;;;;;;;10.20;2.38;;;6.40;1.00;;;;;;7384097;19;20475;-63
2024/04/25 06:54:42;;;;;;;10.82;2.97;;;6.50;1.00;;;;;;7374945;19;20101;-64
2024/04/25 06:57:08;;;;;;;9.48;2.47;;;6.50;1.00;;;;;;7375725;19;20110;-63
2024/04/25 06:59:35;;;;;;;13.00;2.53;;;6.60;1.00;;;;;;7381892;19;20654;-63
2024/04/25 07:02:04;;;;;;;7.85;2.30;;;6.60;1.00;;;;;;7379230;19;20022;-63
2024/04/25 07:04:30;;;;;;;11.07;2.17;;;6.70;1.00;;;;;;7380588;19;20014;-63
2024/04/25 07:06:56;;;;;;;12.93;2.30;;;6.80;1.00;;;;;;7384472;19;20018;-63
2024/04/25 07:09:24;;;;;;;9.88;2.22;;;6.90;1.00;;;;;;7378982;19;20051;-63
2024/04/25 07:11:53;;;;;;;9.82;2.25;;;6.90;99.90;;;;;;7383129;19;20014;-63
2024/04/25 07:14:19;;;;;;;9.27;2.50;;;7.00;99.90;;;;;;7382620;19;20018;-63
2024/04/25 07:16:47;;;;;;;6.95;1.88;;;7.00;99.90;;;;;;7384358;19;20010;-63
2024/04/25 07:19:13;;;;;;;11.65;2.30;;;7.10;99.90;;;;;;7377071;19;20031;-66
2024/04/25 07:21:40;;;;;;;7.78;2.53;;;7.20;99.90;;;;;;7374218;19;20371;-64
2024/04/25 07:24:09;;;;;;;9.60;2.80;;;7.30;99.90;;;;;;7375666;19;20907;-63
2024/04/25 07:26:38;;;;;;;9.57;2.90;;;7.20;99.90;;;;;;7380496;19;20010;-63
2024/04/25 07:29:05;;;;;;;9.10;2.28;;;7.40;99.90;;;;;;7381120;19;20811;-63
2024/04/25 07:31:31;;;;;;;11.02;2.47;;;7.50;99.90;;;;;;7374245;19;20014;-64
2024/04/25 07:33:58;;;;;;;7.35;2.30;;;7.60;99.90;;;;;;7373237;19;20019;-64
2024/04/25 07:36:24;;;;;;;7.80;2.50;;;7.80;99.90;;;;;;7370924;19;20014;-64
2024/04/25 07:38:51;;;;;;;8.63;2.22;;;7.90;99.90;;;;;;7376429;19;20031;-65
2024/04/25 07:41:17;;;;;;;10.65;2.33;;;8.00;99.90;;;;;;7370755;19;20018;-64
2024/04/25 07:43:43;;;;;;;8.48;2.85;;;7.90;1.00;;;;;;7381655;19;20018;-63
2024/04/25 07:46:09;;;;;;;12.73;2.40;;;7.90;99.90;;;;;;7377209;19;20014;-63
2024/04/25 07:48:36;;;;;;;7.90;2.58;;;8.10;99.90;;;;;;7379852;19;20014;-63
2024/04/25 07:51:03;;;;;;;8.68;2.20;;;8.00;85.90;;;;;;7378754;19;20022;-64
2024/04/25 07:53:29;;;;;;;9.85;2.30;;;8.10;1.00;;;;;;7373703;19;20058;-64
2024/04/25 07:55:55;;;;;;;7.25;1.90;;;8.00;1.00;;;;;;7373756;19;20042;-64
2024/04/25 07:58:22;;;;;;;7.32;1.60;;;8.10;1.00;;;;;;7374084;19;20033;-67
2024/04/25 08:00:49;;;;;;;5.43;1.75;;;8.30;1.00;;;;;;7378307;19;20014;-64
2024/04/25 08:03:15;;;;;;;6.25;1.60;;;8.30;1.00;;;;;;7379713;19;20015;-64
2024/04/25 08:05:41;;;;;;;4.18;1.45;;;8.30;99.90;;;;;;7382006;19;20052;-64
2024/04/25 08:08:08;;;;;;;7.63;2.00;;;8.30;99.90;;;;;;7383737;19;20486;-63
2024/04/25 08:10:35;;;;;;;13.93;2.40;;;8.20;99.90;;;;;;7381659;19;20063;-64
2024/04/25 08:13:01;;;;;;;10.05;1.90;;;8.10;99.90;;;;;;7385114;19;20074;-65
2024/04/25 08:15:27;;;;;;;6.80;1.58;;;8.20;99.90;;;;;;7380223;19;20026;-63
2024/04/25 08:17:55;;;;;;;6.07;1.50;;;8.40;99.90;;;;;;7375995;19;20516;-64
2024/04/25 08:20:21;;;;;;;6.78;1.70;;;8.50;99.90;;;;;;7371450;19;20475;-64
2024/04/25 08:22:47;;;;;;;11.57;2.53;;;8.70;99.90;;;;;;7382201;19;20019;-64
2024/04/25 08:25:14;;;;;;;11.07;2.47;;;9.00;99.90;;;;;;7373528;19;20078;-64
2024/04/25 08:27:40;;;;;;;10.82;1.65;;;8.90;99.90;;;;;;7379306;19;20017;-65
2024/04/25 08:30:07;;;;;;;9.35;2.20;;;8.90;99.90;;;;;;7377109;19;20432;-64
2024/04/25 08:32:33;;;;;;;9.38;2.42;;;8.90;99.90;;;;;;7378603;19;20010;-65
2024/04/25 08:35:00;;;;;;;10.50;2.47;;;9.00;99.90;;;;;;7377488;19;20022;-65
2024/04/25 08:37:26;;;;;;;4.80;2.10;;;9.10;99.90;;;;;;7379800;19;20018;-66
2024/04/25 08:39:52;;;;;;;10.02;2.25;;;9.30;99.90;;;;;;7380440;19;20685;-64
2024/04/25 08:42:19;;;;;;;8.50;2.45;;;9.60;99.90;;;;;;7376573;19;20017;-64
2024/04/25 08:44:46;;;;;;;7.75;2.22;;;9.60;99.90;;;;;;7376100;19;20018;-66
2024/04/25 08:47:13;;;;;;;6.07;2.10;;;9.60;99.90;;;;;;7379834;19;20014;-65
2024/04/25 08:49:40;;;;;;;7.70;2.28;;;9.70;99.90;;;;;;7376821;19;20026;-67
2024/04/25 08:52:07;;;;;;;5.68;2.60;;;9.90;99.90;;;;;;7385326;19;20053;-63
2024/04/25 08:54:34;;;;;;;9.35;2.50;;;9.80;99.90;;;;;;7376448;19;20865;-63
2024/04/25 08:57:00;;;;;;;7.20;2.33;;;9.70;90.60;;;;;;7377272;19;20026;-63
2024/04/25 08:59:27;;;;;;;8.45;2.47;;;9.70;10.50;;;;;;7377868;19;20089;-62
2024/04/25 09:01:55;;;;;;;6.00;2.13;;;10.30;1.00;;;;;;7377552;19;20026;-63
2024/04/25 09:04:26;;;;;;;9.55;2.40;;;10.60;1.00;;;;;;7377285;19;20022;-63
2024/04/25 09:06:53;;;;;;;6.40;1.90;;;10.20;1.00;;;;;;7388998;19;20018;-62
2024/04/25 09:09:20;;;;;;;6.63;1.90;;;9.80;1.00;;;;;;7388751;19;20022;-62
2024/04/25 09:11:54;;;;;;;8.90;1.90;;;9.50;1.00;;;;;;7389513;19;20018;-63
2024/04/25 09:14:21;;;;;;;8.13;2.13;;;9.30;1.00;;;;;;7386737;19;20018;-63
2024/04/25 09:16:47;;;;;;;7.63;2.25;;;9.00;1.00;;;;;;7387894;19;20113;-65
2024/04/25 09:19:14;;;;;;;8.50;2.25;;;8.80;1.00;;;;;;7387276;19;20015;-62
2024/04/25 09:21:41;;;;;;;8.18;2.15;;;8.60;32.10;;;;;;7389154;19;20031;-62
2024/04/25 09:24:08;;;;;;;7.03;2.35;;;8.50;1.00;;;;;;7386672;19;20098;-63
2024/04/25 09:26:34;;;;;;;6.40;2.13;;;8.50;1.00;;;;;;7384821;19;20031;-62
2024/04/25 09:29:03;;;;;;;9.57;2.22;;;8.50;1.00;;;;;;7387353;19;20021;-62
2024/04/25 09:31:31;;;;;;;6.78;1.73;;;8.50;1.00;;;;;;7385550;19;20041;-63
2024/04/25 09:33:58;;;;;;;10.45;2.05;;;8.50;1.00;;;;;;7380274;19;20010;-62
2024/04/25 09:36:24;;;;;;;4.57;1.50;;;8.70;1.00;;;;;;7383922;19;20495;-63
2024/04/25 09:38:51;;;;;;;5.50;1.50;;;9.00;1.00;;;;;;7386604;19;20018;-63
2024/04/25 09:41:19;;;;;;;7.68;2.25;;;9.00;99.90;;;;;;7383671;19;20014;-64
2024/04/25 09:43:47;;;;;;;6.38;1.65;;;9.20;1.00;;;;;;7377741;19;20667;-64
2024/04/25 09:46:20;;;;;;;6.15;1.75;;;9.10;99.90;;;;;;7372018;19;20023;-63
2024/04/25 09:48:52;;;;;;;5.10;2.00;;;9.10;1.00;;;;;;7376157;19;20014;-63
2024/04/25 09:51:18;;;;;;;;;;;8.90;1.00;;;;;;7388094;19;20111;-63
2024/04/25 09:53:55;;;;;;;8.15;1.80;;;8.70;99.90;;;;;;7389053;19;19922;-63
2024/04/25 09:56:28;;;;;;;7.57;1.77;;;8.70;1.00;;;;;;7386002;19;20026;-63
2024/04/25 09:59:16;;;;;;;5.93;1.38;;;8.90;99.90;;;;;;7392082;19;20022;-63
2024/04/25 10:01:44;;;;;;;8.25;1.80;;;9.10;1.00;;;;;;7390056;19;20071;-63
2024/04/25 10:04:20;;;;;;;7.55;1.90;;;9.20;99.90;;;;;;7385304;19;20479;-63
2024/04/25 10:06:47;;;;;;;3.97;1.40;;;9.40;1.00;;;;;;7383818;19;20429;-63
2024/04/25 10:09:14;;;;;;;6.38;1.90;;;9.50;99.90;;;;;;7378068;19;20094;-62
2024/04/25 10:11:40;;;;;;;6.63;2.33;;;9.50;99.90;;;;;;7378253;19;20021;-62
2024/04/25 10:14:06;;;;;;;6.15;1.88;;;9.70;99.90;;;;;;7390568;19;20018;-62
2024/04/25 10:16:32;;;;;;;5.78;1.80;;;9.70;99.90;;;;;;7388214;19;20015;-63
2024/04/25 10:18:59;;;;;;;7.22;2.15;;;9.70;99.90;;;;;;7388199;19;20026;-64
2024/04/25 10:21:26;;;;;;;9.38;3.15;;;9.80;99.90;;;;;;7387909;19;20479;-63
2024/04/25 10:24:06;;;;;;;4.35;2.05;;;9.70;99.90;;;;;;7379143;19;20120;-63
2024/04/25 10:26:33;;;;;;;6.40;2.50;;;9.70;99.90;;;;;;7375363;19;20027;-64
2024/04/25 10:29:02;;;;;;;7.60;2.20;;;9.70;99.90;;;;;;7378836;19;20349;-62
2024/04/25 10:31:47;;;;;;;4.65;1.98;;;9.80;99.90;;;;;;7387410;19;20014;-64
2024/04/25 10:34:13;;;;;;;6.13;1.92;;;9.80;99.90;;;;;;7387783;19;20078;-62
2024/04/25 10:36:45;;;;;;;6.75;1.95;;;9.70;99.90;;;;;;7387120;19;20010;-62
2024/04/25 10:39:15;;;;;;;8.48;2.45;;;9.80;99.90;;;;;;7387813;19;20015;-63
2024/04/25 10:41:42;;;;;;;8.45;2.20;;;10.00;99.90;;;;;;7380955;19;20028;-63
2024/04/25 10:44:09;;;;;;;7.10;2.10;;;10.20;99.90;;;;;;7383682;19;20029;-64
2024/04/25 10:46:37;;;;;;;6.15;1.48;;;10.90;99.90;;;;;;7376848;19;20053;-62
2024/04/25 10:49:08;;;;;;;8.80;1.85;;;11.20;99.90;;;;;;7379428;19;20029;-63
2024/04/25 10:51:36;;;;;;;7.45;2.28;;;11.40;99.90;;;;;;7372029;19;20055;-64
2024/04/25 10:54:03;;;;;;;5.53;1.80;;;11.40;99.90;;;;;;7374029;19;20494;-64
2024/04/25 10:56:29;;;;;;;11.60;2.40;;;11.20;99.90;;;;;;7375649;19;20086;-64
2024/04/25 10:58:57;;;;;;;6.93;2.10;;;10.70;99.90;;;;;;7374862;19;20014;-61
2024/04/25 11:01:28;;;;;;;6.95;2.00;;;10.50;99.90;;;;;;7382146;19;20031;-62
2024/04/25 11:04:05;;;;;;;6.77;1.90;;;10.30;99.90;;;;;;7378230;19;20659;-65
2024/04/25 11:06:35;;;;;;;8.23;2.35;;;10.40;99.90;;;;;;7382092;19;20042;-63
2024/04/25 11:09:03;;;;;;;9.30;2.30;;;10.40;99.90;;;;;;7377765;19;20028;-65
2024/04/25 11:11:32;;;;;;;5.20;1.90;;;10.50;99.90;;;;;;7378803;19;20613;-62
2024/04/25 11:13:58;;;;;;;5.38;2.10;;;10.40;99.90;;;;;;7376364;19;20033;-64
2024/04/25 11:16:37;;;;;;;5.65;2.00;;;10.40;99.90;;;;;;7376907;19;20030;-64
2024/04/25 11:19:04;;;;;;;9.35;1.83;;;10.80;99.90;;;;;;7381761;19;20461;-62
2024/04/25 11:21:32;;;;;;;5.00;2.13;;;11.00;99.90;;;;;;7381343;19;20098;-64
2024/04/25 11:23:58;;;;;;;5.05;1.75;;;10.90;99.90;;;;;;7380690;19;20018;-64
2024/04/25 11:26:25;;;;;;;4.68;1.55;;;10.80;99.90;;;;;;7373168;19;20014;-64
2024/04/25 11:28:51;;;;;;;4.32;2.00;;;10.70;99.90;;;;;;7378206;19;20018;-63
2024/04/25 11:31:17;;;;;;;5.85;1.73;;;10.50;99.90;;;;;;7371675;19;20018;-64
2024/04/25 11:33:44;;;;;;;4.95;1.75;;;10.60;99.90;;;;;;7381188;19;20019;-64
2024/04/25 11:36:21;;;;;;;4.75;1.70;;;10.50;99.90;;;;;;7381751;19;20010;-63
2024/04/25 11:38:51;;;;;;;8.77;2.00;;;10.40;99.90;;;;;;7376749;19;20026;-62
2024/04/25 11:41:17;;;;;;;4.80;1.60;;;10.40;99.90;;;;;;7376764;19;20043;-64
2024/04/25 11:43:44;;;;;;;6.70;1.75;;;10.20;99.90;;;;;;7385370;19;20074;-63
2024/04/25 11:46:10;;;;;;;6.63;1.90;;;10.10;99.90;;;;;;7371937;19;20081;-63
2024/04/25 11:48:52;;;;;;;8.30;1.77;;;10.10;99.90;;;;;;7378360;19;20067;-62
2024/04/25 11:51:19;;;;;;;5.57;1.90;;;10.00;99.90;;;;;;7384650;19;20011;-62
2024/04/25 11:53:45;;;;;;;6.72;1.63;;;10.00;99.90;;;;;;7385156;19;20014;-61
2024/04/25 11:56:12;;;;;;;6.13;1.85;;;10.00;99.90;;;;;;7376209;19;20021;-63
2024/04/25 11:58:38;;;;;;;6.32;2.17;;;9.90;99.90;;;;;;7382161;19;20014;-62
2024/04/25 12:01:04;;;;;;;6.60;1.70;;;10.00;99.90;;;;;;7380167;19;20018;-64
2024/04/25 12:03:30;;;;;;;4.90;1.92;;;10.00;99.90;;;;;;7384714;19;20014;-62
2024/04/25 12:05:57;;;;;;;6.70;2.03;;;9.90;99.90;;;;;;7380085;19;20097;-62
2024/04/25 12:08:23;;;;;;;5.72;2.63;;;9.90;99.90;;;;;;7383626;19;20018;-62
2024/04/25 12:10:52;;;;;;;4.78;2.22;;;9.80;99.90;;;;;;7382255;19;20018;-62
2024/04/25 12:13:19;;;;;;;5.90;1.95;;;9.60;99.90;;;;;;7383472;19;20034;-62
2024/04/25 12:15:45;;;;;;;5.00;1.60;;;9.40;99.90;;;;;;7381732;19;20049;-62
2024/04/25 12:18:11;;;;;;;5.30;1.88;;;9.00;99.90;;;;;;7382087;19;20044;-62
2024/04/25 12:20:38;;;;;;;5.53;1.75;;;8.80;1.00;;;;;;7382334;19;20014;-62
2024/04/25 12:23:09;;;;;;;4.95;1.92;;;8.50;1.00;;;;;;7383846;19;20019;-63
2024/04/25 12:25:36;;;;;;;5.18;1.92;;;8.10;1.00;;;;;;7380646;19;20010;-63
2024/04/25 12:28:05;;;;;;;7.03;2.10;;;7.90;99.90;;;;;;7385118;19;20015;-62
2024/04/25 12:30:35;;;;;;;6.20;2.08;;;8.00;99.90;;;;;;7377974;19;20491;-63
2024/04/25 12:33:02;;;;;;;7.43;2.40;;;8.10;99.90;;;;;;7378837;19;20019;-63
2024/04/25 12:35:28;;;;;;;6.70;2.38;;;8.30;99.90;;;;;;7370724;19;20530;-63
2024/04/25 12:37:54;;;;;;;4.63;1.95;;;8.30;99.90;;;;;;7378094;19;20725;-62
2024/04/25 12:40:21;;;;;;;4.75;2.20;;;8.40;99.90;;;;;;7381981;19;20022;-62
2024/04/25 12:42:47;;;;;;;6.65;2.60;;;8.70;99.90;;;;;;7375021;19;20352;-64
2024/04/25 12:45:19;;;;;;;6.53;2.10;;;8.80;99.90;;;;;;7373777;19;20015;-64
2024/04/25 12:47:46;;;;;;;6.93;2.25;;;8.90;99.90;;;;;;7366600;19;20091;-64
2024/04/25 12:50:12;;;;;;;7.28;2.60;;;9.20;99.90;;;;;;7379683;19;20114;-62
2024/04/25 12:52:39;;;;;;;6.68;2.50;;;9.40;99.90;;;;;;7380834;19;20122;-64
2024/04/25 12:55:07;;;;;;;6.82;2.17;;;9.50;1.00;;;;;;7372866;19;20025;-64
2024/04/25 12:57:36;;;;;;;6.10;2.15;;;9.60;1.00;;;;;;7375122;19;20025;-63
2024/04/25 13:00:03;;;;;;;6.38;2.80;;;9.60;1.00;;;;;;7379894;19;20018;-63
2024/04/25 13:02:29;;;;;;;5.30;2.40;;;9.60;1.00;;;;;;7381336;19;20054;-63
2024/04/25 13:04:56;;;;;;;5.68;2.28;;;9.50;1.00;;;;;;7383250;19;20023;-63